createdAt,value
2022-08-05T00:00:10.481Z,41.3
2022-08-05T00:01:20.401Z,41.3
2022-08-05T00:02:12.572Z,41.3
2022-08-05T00:03:15.434Z,41.7
2022-08-05T00:04:14.360Z,41.7
2022-08-05T00:05:27.291Z,41.8
2022-08-05T00:06:22.235Z,41.6
2022-08-05T00:07:21.953Z,41.7
2022-08-05T00:08:19.885Z,41.7
2022-08-05T00:09:19.630Z,41.7
2022-08-05T00:10:20.311Z,41.6
2022-08-05T00:11:28.061Z,41.7
2022-08-05T00:12:22.334Z,41.7
2022-08-05T00:13:31.287Z,41.8
2022-08-05T00:14:26.543Z,41.7
2022-08-05T00:15:54.589Z,42.2
2022-08-05T00:16:35.825Z,42.4
2022-08-05T00:17:27.327Z,42.2
2022-08-05T00:18:28.797Z,42
2022-08-05T00:19:32.969Z,41.5
2022-08-05T00:20:30.360Z,41.6
2022-08-05T00:21:31.382Z,41.6
2022-08-05T00:22:32.300Z,41.7
2022-08-05T00:23:44.914Z,41.6
2022-08-05T00:24:34.360Z,41.8
2022-08-05T00:25:45.429Z,42
2022-08-05T00:26:36.380Z,42.2
2022-08-05T00:27:37.537Z,42.3
2022-08-05T00:28:38.449Z,42.4
2022-08-05T00:29:39.369Z,42.5
2022-08-05T00:30:41.161Z,42.5
2022-08-05T00:31:54.581Z,42.7
2022-08-05T00:32:42.398Z,42.9
2022-08-05T00:34:43.073Z,43.2
2022-08-05T00:34:55.031Z,43.2
2022-08-05T00:35:47.879Z,43.2
2022-08-05T00:37:09.340Z,43.3
2022-08-05T00:37:51.587Z,43.4
2022-08-05T00:38:48.500Z,43.4
2022-08-05T00:39:57.570Z,43.4
2022-08-05T00:40:51.888Z,43.7
2022-08-05T00:41:52.307Z,43.9
2022-08-05T00:42:52.367Z,43.8
2022-08-05T00:43:53.381Z,43.8
2022-08-05T00:44:54.437Z,43.8
2022-08-05T00:45:55.381Z,43.7
2022-08-05T00:47:01.811Z,43.5
2022-08-05T00:48:05.027Z,43.5
2022-08-05T00:48:58.439Z,43.6
2022-08-05T00:49:59.360Z,43.7
2022-08-05T00:51:00.399Z,43.7
2022-08-05T00:52:01.581Z,43.6
2022-08-05T00:53:03.360Z,43.6
2022-08-05T00:54:04.502Z,43.7
2022-08-05T00:55:05.440Z,43.6
2022-08-05T00:56:07.776Z,43.7
2022-08-05T00:57:07.440Z,43.9
2022-08-05T00:58:08.400Z,43.9
2022-08-05T00:59:09.419Z,43.8
2022-08-05T01:00:11.089Z,43.4
2022-08-05T01:03:10.337Z,44.5
2022-08-05T01:04:13.981Z,44.5
2022-08-05T01:05:12.442Z,44.6
2022-08-05T01:06:14.289Z,44.8
2022-08-05T01:07:14.391Z,44.5
2022-08-05T01:08:30.511Z,44.6
2022-08-05T01:09:17.217Z,44.9
2022-08-05T01:10:17.534Z,44.9
2022-08-05T01:11:22.009Z,44.9
2022-08-05T01:12:19.357Z,44.7
2022-08-05T01:13:22.321Z,44.6
2022-08-05T01:14:28.164Z,44.7
2022-08-05T01:15:35.001Z,44.8
2022-08-05T01:16:26.164Z,44.8
2022-08-05T01:17:24.681Z,44.7
2022-08-05T01:18:25.374Z,44.7
2022-08-05T01:19:30.337Z,44.9
2022-08-05T01:20:27.602Z,45.3
2022-08-05T01:21:38.371Z,45.5
2022-08-05T01:22:31.789Z,45.4
2022-08-05T01:23:34.684Z,45.5
2022-08-05T01:24:35.395Z,45.5
2022-08-05T01:25:39.529Z,45.3
2022-08-05T01:26:37.436Z,45.3
2022-08-05T01:27:50.596Z,45.5
2022-08-05T01:28:39.694Z,45.6
2022-08-05T01:29:40.475Z,45.5
2022-08-05T01:30:46.629Z,45.5
2022-08-05T01:31:42.499Z,45.5
2022-08-05T01:32:43.400Z,45.4
2022-08-05T01:33:48.879Z,45.3
2022-08-05T01:34:45.476Z,45.2
2022-08-05T01:35:50.506Z,45.3
2022-08-05T01:36:47.632Z,45.1
2022-08-05T01:37:48.395Z,45
2022-08-05T01:38:49.714Z,44.8
2022-08-05T01:39:50.431Z,44.7
2022-08-05T01:40:51.424Z,44.8
2022-08-05T01:41:52.385Z,44.7
2022-08-05T01:42:53.375Z,44.6
2022-08-05T01:43:54.443Z,44.3
2022-08-05T01:44:55.454Z,44.1
2022-08-05T01:45:56.859Z,44.2
2022-08-05T01:46:57.515Z,44.2
2022-08-05T01:47:58.394Z,44
2022-08-05T01:48:59.434Z,44.3
2022-08-05T01:50:02.329Z,44.5
2022-08-05T01:51:11.903Z,44.3
2022-08-05T01:52:02.354Z,44.4
2022-08-05T01:53:03.396Z,44.4
2022-08-05T01:54:04.374Z,44.4
2022-08-05T01:55:05.569Z,44.8
2022-08-05T01:56:06.355Z,45
2022-08-05T01:58:08.553Z,44.9
2022-08-05T01:58:15.391Z,45.1
2022-08-05T01:59:09.414Z,45.3
2022-08-05T02:00:11.754Z,45.4
2022-08-05T02:01:12.794Z,45.7
2022-08-05T02:02:14.503Z,45.6
2022-08-05T02:03:16.272Z,45.5
2022-08-05T02:04:16.382Z,45.5
2022-08-05T02:05:17.894Z,45.5
2022-08-05T02:06:34.019Z,45.5
2022-08-05T02:07:21.812Z,45.4
2022-08-05T02:08:29.003Z,45.3
2022-08-05T02:09:22.375Z,45.2
2022-08-05T02:10:28.396Z,45.3
2022-08-05T02:11:32.692Z,45.2
2022-08-05T02:12:25.446Z,45.3
2022-08-05T02:13:26.414Z,45.2
2022-08-05T02:14:27.436Z,45
2022-08-05T02:15:31.215Z,45.3
2022-08-05T02:16:29.293Z,45.5
2022-08-05T02:18:29.253Z,45.5
2022-08-05T02:18:34.750Z,45.5
2022-08-05T02:19:33.449Z,45.5
2022-08-05T02:20:33.474Z,45.5
2022-08-05T02:21:40.353Z,45.8
2022-08-05T02:22:35.355Z,46.3
2022-08-05T02:23:36.414Z,46.4
2022-08-05T02:24:37.501Z,46.7
2022-08-05T02:25:49.673Z,46.8
2022-08-05T02:26:39.415Z,46.6
2022-08-05T02:27:58.821Z,46.6
2022-08-05T02:28:41.596Z,46.9
2022-08-05T02:29:59.372Z,47
2022-08-05T02:30:51.937Z,47.2
2022-08-05T02:31:44.496Z,47.2
2022-08-05T02:32:45.394Z,47.1
2022-08-05T02:33:48.383Z,46.8
2022-08-05T02:34:51.737Z,46.7
2022-08-05T02:35:49.951Z,46.6
2022-08-05T02:36:49.496Z,46.5
2022-08-05T02:37:54.041Z,46.4
2022-08-05T02:38:53.081Z,46.4
2022-08-05T02:39:52.490Z,46.4
2022-08-05T02:40:53.674Z,46.8
2022-08-05T02:41:58.337Z,47.3
2022-08-05T02:42:56.414Z,47.3
2022-08-05T02:44:02.184Z,47.4
2022-08-05T02:44:58.418Z,47.4
2022-08-05T02:46:00.944Z,47.5
2022-08-05T02:47:01.433Z,47.4
2022-08-05T02:48:07.146Z,47.6
2022-08-05T02:49:03.434Z,47.4
2022-08-05T02:50:04.515Z,47.4
2022-08-05T02:51:05.322Z,46.9
2022-08-05T02:52:06.394Z,46.8
2022-08-05T02:53:07.474Z,47
2022-08-05T02:54:08.393Z,47.2
2022-08-05T02:55:10.790Z,47.8
2022-08-05T02:56:15.858Z,47.7
2022-08-05T02:58:08.894Z,47.5
2022-08-05T02:58:14.522Z,47.5
2022-08-05T02:59:15.359Z,47.5
2022-08-05T03:00:16.591Z,47.3
2022-08-05T03:01:19.427Z,47.2
2022-08-05T03:02:19.563Z,47
2022-08-05T03:03:20.494Z,47.3
2022-08-05T03:04:23.071Z,47.4
2022-08-05T03:06:52.805Z,47.5
2022-08-05T03:06:53.205Z,47.5
2022-08-05T03:07:40.724Z,46.8
2022-08-05T03:08:29.707Z,47.3
2022-08-05T03:09:36.576Z,46.9
2022-08-05T03:10:31.415Z,47.3
2022-08-05T03:11:54.249Z,47.4
2022-08-05T03:12:33.475Z,47.7
2022-08-05T03:13:51.334Z,47.8
2022-08-05T03:14:35.436Z,48
2022-08-05T03:15:36.535Z,48
2022-08-05T03:16:37.605Z,48.1
2022-08-05T03:17:40.048Z,47.9
2022-08-05T03:18:39.454Z,47
2022-08-05T03:19:41.770Z,47.7
2022-08-05T03:20:41.496Z,48.2
2022-08-05T03:21:49.023Z,48.2
2022-08-05T03:22:43.992Z,48.4
2022-08-05T03:23:45.586Z,48.3
2022-08-05T03:24:46.868Z,48.4
2022-08-05T03:26:04.227Z,48.2
2022-08-05T03:26:49.348Z,48.7
2022-08-05T03:27:58.085Z,48.9
2022-08-05T03:28:50.413Z,49
2022-08-05T03:30:07.070Z,48.8
2022-08-05T03:31:02.434Z,48.6
2022-08-05T03:32:03.594Z,48.7
2022-08-05T03:33:04.415Z,48.7
2022-08-05T03:34:05.474Z,48.8
2022-08-05T03:35:06.456Z,48.6
2022-08-05T03:36:07.413Z,48.7
2022-08-05T03:37:08.453Z,48.7
2022-08-05T03:38:09.415Z,48.7
2022-08-05T03:39:12.906Z,48.6
2022-08-05T03:40:11.774Z,48.6
2022-08-05T03:41:12.694Z,48.3
2022-08-05T03:42:14.495Z,48.5
2022-08-05T03:43:16.173Z,48.5
2022-08-05T03:44:19.777Z,48.5
2022-08-05T03:45:22.311Z,48.5
2022-08-05T03:46:18.474Z,48.6
2022-08-05T03:47:19.554Z,48.7
2022-08-05T03:48:21.961Z,48.8
2022-08-05T03:49:24.167Z,48.8
2022-08-05T03:50:22.398Z,49
2022-08-05T03:52:35.677Z,49
2022-08-05T03:52:35.768Z,49.1
2022-08-05T03:54:59.578Z,49
2022-08-05T03:55:00.779Z,48.9
2022-08-05T03:55:54.299Z,48.8
2022-08-05T03:56:31.807Z,48.7
2022-08-05T03:57:29.585Z,48.7
2022-08-05T03:58:30.494Z,48.8
2022-08-05T03:59:46.686Z,48.7
2022-08-05T04:00:32.654Z,48.5
2022-08-05T04:01:34.553Z,48.6
2022-08-05T04:02:37.468Z,48.5
2022-08-05T04:03:38.064Z,48.3
2022-08-05T04:04:37.535Z,48.3
2022-08-05T04:05:40.105Z,48.4
2022-08-05T04:06:47.665Z,48.3
2022-08-05T04:07:57.125Z,47.6
2022-08-05T04:08:41.476Z,47.9
2022-08-05T04:09:53.002Z,47.7
2022-08-05T04:10:43.445Z,47.6
2022-08-05T04:11:47.193Z,47.9
2022-08-05T04:12:45.433Z,47.9
2022-08-05T04:13:49.600Z,48.1
2022-08-05T04:14:47.834Z,48.1
2022-08-05T04:15:52.959Z,47.9
2022-08-05T04:16:50.465Z,47.4
2022-08-05T04:17:55.985Z,48.1
2022-08-05T04:18:53.877Z,47.8
2022-08-05T04:19:54.406Z,47.8
2022-08-05T04:20:54.474Z,47.4
2022-08-05T04:22:05.401Z,47.1
2022-08-05T04:22:56.474Z,47.6
2022-08-05T04:24:06.141Z,47.4
2022-08-05T04:24:58.533Z,47.5
2022-08-05T04:26:00.757Z,47.3
2022-08-05T04:27:00.534Z,47.4
2022-08-05T04:28:05.545Z,47.2
2022-08-05T04:29:05.570Z,46.8
2022-08-05T04:30:03.968Z,46.6
2022-08-05T04:31:08.329Z,46.9
2022-08-05T04:32:06.474Z,47.1
2022-08-05T04:33:07.609Z,47.3
2022-08-05T04:34:19.475Z,47.1
2022-08-05T04:35:17.467Z,47.3
2022-08-05T04:36:16.028Z,47.1
2022-08-05T04:37:11.534Z,47
2022-08-05T04:38:15.549Z,46.8
2022-08-05T04:39:14.532Z,46.7
2022-08-05T04:40:19.375Z,46.6
2022-08-05T04:41:16.452Z,46.5
2022-08-05T04:42:17.675Z,46.3
2022-08-05T04:43:21.988Z,46.7
2022-08-05T04:44:21.069Z,47.3
2022-08-05T04:45:22.872Z,47.1
2022-08-05T04:46:28.055Z,46.4
2022-08-05T04:47:23.644Z,46.2
2022-08-05T04:48:27.779Z,46.1
2022-08-05T04:49:38.185Z,46.2
2022-08-05T04:50:34.301Z,45.8
2022-08-05T04:51:30.437Z,45.9
2022-08-05T04:52:29.435Z,45.9
2022-08-05T04:53:33.282Z,45.6
2022-08-05T04:54:32.055Z,45.6
2022-08-05T04:56:00.156Z,45.8
2022-08-05T04:56:37.310Z,45.9
2022-08-05T04:57:37.076Z,45.9
2022-08-05T04:58:36.455Z,46.1
2022-08-05T04:59:38.674Z,45.8
2022-08-05T05:00:38.521Z,45.8
2022-08-05T05:02:06.567Z,45.7
2022-08-05T05:02:41.660Z,45.1
2022-08-05T05:03:42.012Z,44.8
2022-08-05T05:04:44.241Z,45
2022-08-05T05:06:36.353Z,45.5
2022-08-05T05:06:49.448Z,45.8
2022-08-05T05:07:45.604Z,45.3
2022-08-05T05:08:49.916Z,45.4
2022-08-05T05:09:47.416Z,45.4
2022-08-05T05:10:56.086Z,45.5
2022-08-05T05:11:54.238Z,45.5
2022-08-05T05:12:50.537Z,45.4
2022-08-05T05:13:51.653Z,44.9
2022-08-05T05:14:52.636Z,44.7
2022-08-05T05:15:57.771Z,44.4
2022-08-05T05:16:54.602Z,43.9
2022-08-05T05:17:57.549Z,43.6
2022-08-05T05:19:16.721Z,43.7
2022-08-05T05:19:57.514Z,43.4
2022-08-05T05:20:58.695Z,43.4
2022-08-05T05:21:59.497Z,43.6
2022-08-05T05:23:03.191Z,43.9
2022-08-05T05:24:02.574Z,43.8
2022-08-05T05:25:16.234Z,44.1
2022-08-05T05:26:03.453Z,44
2022-08-05T05:27:04.494Z,44
2022-08-05T05:28:05.594Z,43.7
2022-08-05T05:29:10.203Z,43.3
2022-08-05T05:30:07.499Z,43.1
2022-08-05T05:31:08.839Z,42.7
2022-08-05T05:32:12.371Z,43.1
2022-08-05T05:33:16.661Z,43.2
2022-08-05T05:34:11.594Z,43.2
2022-08-05T05:35:12.894Z,42.7
2022-08-05T05:36:14.698Z,42.6
2022-08-05T05:37:15.600Z,42.5
2022-08-05T05:38:22.347Z,42.9
2022-08-05T05:39:19.072Z,43.2
2022-08-05T05:40:19.754Z,43.4
2022-08-05T05:41:20.496Z,43.9
2022-08-05T05:42:21.514Z,44.4
2022-08-05T05:43:28.364Z,44.3
2022-08-05T05:44:36.141Z,44.1
2022-08-05T05:45:24.851Z,44.2
2022-08-05T05:46:25.454Z,44.4
2022-08-05T05:47:30.154Z,45
2022-08-05T05:48:27.962Z,45.7
2022-08-05T05:49:28.493Z,46
2022-08-05T05:50:29.514Z,46.1
2022-08-05T05:51:30.570Z,45.9
2022-08-05T05:52:33.218Z,46.1
2022-08-05T05:53:32.696Z,45.8
2022-08-05T05:54:50.701Z,45.5
2022-08-05T05:55:51.197Z,45.6
2022-08-05T05:56:36.594Z,45
2022-08-05T05:57:42.951Z,44.6
2022-08-05T05:58:38.584Z,44.5
2022-08-05T05:59:40.235Z,44.3
2022-08-05T06:00:40.514Z,44.3
2022-08-05T06:01:53.833Z,43.8
2022-08-05T06:02:42.687Z,42.3
2022-08-05T06:04:00.335Z,42.3
2022-08-05T06:04:44.666Z,42.4
2022-08-05T06:05:45.634Z,42.6
2022-08-05T06:06:47.833Z,42.7
2022-08-05T06:07:57.700Z,42.1
2022-08-05T06:08:49.138Z,41.5
2022-08-05T06:10:00.369Z,41.3
2022-08-05T06:10:52.728Z,41.1
2022-08-05T06:11:59.868Z,40.3
2022-08-05T06:12:53.534Z,40.9
2022-08-05T06:13:55.482Z,40.7
2022-08-05T06:14:55.594Z,40.3
2022-08-05T06:16:27.732Z,39.9
2022-08-05T06:16:57.861Z,39.7
2022-08-05T06:17:58.513Z,39.5
2022-08-05T06:19:00.186Z,39
2022-08-05T06:20:00.596Z,39
2022-08-05T06:21:01.540Z,38.9
2022-08-05T06:22:02.576Z,39.1
2022-08-05T06:23:04.077Z,39.6
2022-08-05T06:24:04.613Z,39.6
2022-08-05T06:25:24.722Z,39
2022-08-05T06:26:14.011Z,39.3
2022-08-05T06:27:17.144Z,38.9
2022-08-05T06:28:09.915Z,38.7
2022-08-05T06:29:24.789Z,38.8
2022-08-05T06:30:16.684Z,39.3
2022-08-05T06:31:18.204Z,39.1
2022-08-05T06:32:13.623Z,39
2022-08-05T06:33:15.013Z,39.2
2022-08-05T06:34:15.829Z,38.9
2022-08-05T06:35:21.957Z,39.1
2022-08-05T06:36:17.695Z,39
2022-08-05T06:37:39.375Z,39
2022-08-05T06:38:35.746Z,39
2022-08-05T06:39:21.830Z,39
2022-08-05T06:40:27.774Z,39
2022-08-05T06:41:23.574Z,39.2
2022-08-05T06:42:25.358Z,39
2022-08-05T06:43:51.978Z,39
2022-08-05T06:44:26.655Z,38.8
2022-08-05T06:45:44.342Z,38.7
2022-08-05T06:46:29.979Z,38.5
2022-08-05T06:47:30.224Z,38.5
2022-08-05T06:48:37.424Z,38.5
2022-08-05T06:50:01.013Z,38.4
2022-08-05T06:50:32.554Z,38.2
2022-08-05T06:51:33.553Z,38
2022-08-05T06:52:36.447Z,37.8
2022-08-05T06:53:39.221Z,37.3
2022-08-05T06:54:36.576Z,37.2
2022-08-05T06:55:37.595Z,37.5
2022-08-05T06:56:38.574Z,37.8
2022-08-05T06:57:57.057Z,38
2022-08-05T06:58:40.906Z,37.3
2022-08-05T06:59:42.293Z,37
2022-08-05T07:00:42.662Z,37.3
2022-08-05T07:01:43.590Z,37.9
2022-08-05T07:02:44.703Z,38.3
2022-08-05T07:03:45.682Z,38
2022-08-05T07:04:46.576Z,37.8
2022-08-05T07:05:47.695Z,37.9
2022-08-05T07:06:50.359Z,37.6
2022-08-05T07:07:49.614Z,37
2022-08-05T07:08:51.733Z,37.4
2022-08-05T07:09:55.601Z,37.9
2022-08-05T07:10:54.025Z,37
2022-08-05T07:11:54.793Z,36
2022-08-05T07:12:56.714Z,35.1
2022-08-05T07:13:59.944Z,35.4
2022-08-05T07:14:58.782Z,35.3
2022-08-05T07:16:01.387Z,34.8
2022-08-05T07:17:57.565Z,34.8
2022-08-05T07:18:09.712Z,35.4
2022-08-05T07:19:02.736Z,34.9
2022-08-05T07:20:31.936Z,35.4
2022-08-05T07:21:05.838Z,36.2
2022-08-05T07:22:07.595Z,36.8
2022-08-05T07:23:08.673Z,36.8
2022-08-05T07:24:11.159Z,36.9
2022-08-05T07:25:22.260Z,36.6
2022-08-05T07:26:13.265Z,36.4
2022-08-05T07:27:13.079Z,36.5
2022-08-05T07:28:17.309Z,36.7
2022-08-05T07:29:15.575Z,36.8
2022-08-05T07:30:22.695Z,36.8
2022-08-05T07:31:17.743Z,35.9
2022-08-05T07:32:18.773Z,35.2
2022-08-05T07:33:20.735Z,35.2
2022-08-05T07:34:25.210Z,35.7
2022-08-05T07:35:56.609Z,35.2
2022-08-05T07:36:23.735Z,33.4
2022-08-05T07:37:24.820Z,32.7
2022-08-05T07:38:26.551Z,33.1
2022-08-05T07:40:03.940Z,33.5
2022-08-05T07:40:32.786Z,33.7
2022-08-05T07:42:10.076Z,33.8
2022-08-05T07:42:31.635Z,33.2
2022-08-05T07:43:30.694Z,33.5
2022-08-05T07:44:31.513Z,32.8
2022-08-05T07:45:44.118Z,32.1
2022-08-05T07:46:33.918Z,31.9
2022-08-05T07:47:40.387Z,31.9
2022-08-05T07:49:01.028Z,31.9
2022-08-05T07:49:43.447Z,32.2
2022-08-05T07:50:37.658Z,32.3
2022-08-05T07:51:41.223Z,31.3
2022-08-05T07:52:39.634Z,31.5
2022-08-05T07:53:49.874Z,32
2022-08-05T07:54:47.743Z,31.9
2022-08-05T07:55:44.720Z,32.3
2022-08-05T07:57:01.049Z,32.5
2022-08-05T07:57:52.402Z,31.8
2022-08-05T07:58:55.131Z,31.2
2022-08-05T07:59:46.877Z,30
2022-08-05T08:00:47.644Z,30.3
2022-08-05T08:01:51.891Z,30.8
2022-08-05T08:03:13.417Z,30.9
2022-08-05T08:03:51.395Z,31.1
2022-08-05T08:04:51.663Z,31.6
2022-08-05T08:05:52.754Z,31.8
2022-08-05T08:06:53.657Z,31.9
2022-08-05T08:07:59.414Z,32.7
2022-08-05T08:08:55.695Z,31.2
2022-08-05T08:09:57.758Z,30.5
2022-08-05T08:10:59.641Z,30.5
2022-08-05T08:12:06.337Z,29.9
2022-08-05T08:13:02.590Z,30.4
2022-08-05T08:14:03.778Z,30.4
2022-08-05T08:15:04.922Z,30.7
2022-08-05T08:16:36.083Z,30.8
2022-08-05T08:17:07.640Z,30.3
2022-08-05T08:18:09.941Z,29
2022-08-05T08:19:09.693Z,29.2
2022-08-05T08:20:23.328Z,29.5
2022-08-05T08:21:15.888Z,29.3
2022-08-05T08:22:15.826Z,29.3
2022-08-05T08:24:00.619Z,29.2
2022-08-05T08:24:15.640Z,28.9
2022-08-05T08:25:17.906Z,29
2022-08-05T08:26:26.660Z,28.9
2022-08-05T08:27:19.675Z,28.5
2022-08-05T08:28:35.955Z,28.6
2022-08-05T08:29:45.606Z,28.3
2022-08-05T08:30:30.281Z,28.2
2022-08-05T08:31:23.654Z,28.4
2022-08-05T08:32:27.964Z,28.5
2022-08-05T08:33:27.194Z,28.8
2022-08-05T08:34:30.078Z,28.8
2022-08-05T08:35:27.735Z,28.8
2022-08-05T08:36:37.208Z,29.1
2022-08-05T08:37:29.675Z,29
2022-08-05T08:38:32.110Z,28.2
2022-08-05T08:39:31.742Z,27.7
2022-08-05T08:40:32.734Z,27.7
2022-08-05T08:41:50.529Z,27.9
2022-08-05T08:42:46.865Z,28.2
2022-08-05T08:44:56.566Z,28.4
2022-08-05T08:45:22.000Z,28.6
2022-08-05T08:45:38.811Z,29
2022-08-05T08:46:39.714Z,28.7
2022-08-05T08:47:47.941Z,28.4
2022-08-05T08:49:05.160Z,29.1
2022-08-05T08:50:05.638Z,28.8
2022-08-05T08:51:04.301Z,28.6
2022-08-05T08:52:02.750Z,27.7
2022-08-05T08:52:47.307Z,27.3
2022-08-05T08:53:47.582Z,27.2
2022-08-05T08:54:48.756Z,27.8
2022-08-05T08:56:02.407Z,28.4
2022-08-05T08:56:51.674Z,28.1
2022-08-05T08:57:57.797Z,28.3
2022-08-05T08:58:53.622Z,29.1
2022-08-05T08:59:55.961Z,27.9
2022-08-05T09:00:55.822Z,28.5
2022-08-05T09:01:57.210Z,27.2
2022-08-05T09:02:57.883Z,27.7
2022-08-05T09:03:59.661Z,26.7
2022-08-05T09:05:16.177Z,26.8
2022-08-05T09:06:08.274Z,26.8
2022-08-05T09:07:02.643Z,27.3
2022-08-05T09:08:03.795Z,27
2022-08-05T09:09:05.405Z,26
2022-08-05T09:10:06.877Z,26.1
2022-08-05T09:11:08.765Z,26.1
2022-08-05T09:12:20.306Z,26.4
2022-08-05T09:13:10.580Z,26.5
2022-08-05T09:14:55.031Z,26.4
2022-08-05T09:15:13.214Z,26.3
2022-08-05T09:16:16.839Z,26.6
2022-08-05T09:17:15.832Z,26.6
2022-08-05T09:18:16.706Z,25.9
2022-08-05T09:19:17.895Z,25.7
2022-08-05T09:20:21.010Z,25.6
2022-08-05T09:22:18.591Z,25.9
2022-08-05T09:22:23.575Z,26.1
2022-08-05T09:23:22.624Z,26
2022-08-05T09:24:24.254Z,25.7
2022-08-05T09:25:24.741Z,25.9
2022-08-05T09:26:25.824Z,26
2022-08-05T09:28:03.653Z,25.1
2022-08-05T09:28:31.765Z,25
2022-08-05T09:29:30.846Z,24.8
2022-08-05T09:30:29.714Z,24.8
2022-08-05T09:32:38.875Z,25.2
2022-08-05T09:32:40.525Z,25
2022-08-05T09:33:35.019Z,24.2
2022-08-05T09:34:33.715Z,24.6
2022-08-05T09:35:34.754Z,25.1
2022-08-05T09:36:35.954Z,25
2022-08-05T09:38:13.314Z,24.9
2022-08-05T09:38:38.754Z,24.9
2022-08-05T09:39:41.742Z,24.7
2022-08-05T09:40:40.653Z,24.2
2022-08-05T09:41:41.854Z,23.3
2022-08-05T09:42:42.720Z,23.3
2022-08-05T09:43:43.762Z,23.3
2022-08-05T09:44:44.793Z,23.9
2022-08-05T09:46:05.548Z,24.2
2022-08-05T09:46:51.965Z,24.2
2022-08-05T09:47:56.375Z,24.4
2022-08-05T09:48:55.254Z,24
2022-08-05T09:49:54.622Z,23.7
2022-08-05T09:50:50.675Z,23.8
2022-08-05T09:51:51.720Z,23.5
2022-08-05T09:52:52.860Z,23.3
2022-08-05T09:53:59.043Z,22.7
2022-08-05T09:54:54.694Z,22.1
2022-08-05T09:56:03.858Z,22.7
2022-08-05T09:56:57.444Z,22.2
2022-08-05T09:57:59.915Z,23.1
2022-08-05T09:58:59.753Z,23.2
2022-08-05T10:00:03.689Z,23.5
2022-08-05T10:01:01.676Z,24
2022-08-05T10:02:02.841Z,23.4
2022-08-05T10:03:03.804Z,22.4
2022-08-05T10:04:10.214Z,22
2022-08-05T10:05:05.754Z,22.4
2022-08-05T10:06:14.942Z,22.1
2022-08-05T10:07:20.656Z,22.4
2022-08-05T10:08:11.446Z,22.4
2022-08-05T10:09:10.134Z,22.4
2022-08-05T10:10:14.759Z,22.8
2022-08-05T10:11:13.254Z,22.4
2022-08-05T10:12:19.030Z,22.6
2022-08-05T10:13:15.715Z,22.6
2022-08-05T10:14:16.782Z,22.1
2022-08-05T10:15:20.123Z,21.9
2022-08-05T10:16:18.782Z,22.2
2022-08-05T10:17:37.034Z,22.1
2022-08-05T10:18:20.669Z,22.2
2022-08-05T10:19:23.394Z,22
2022-08-05T10:20:22.702Z,21.6
2022-08-05T10:21:23.713Z,21.4
2022-08-05T10:22:30.153Z,21.2
2022-08-05T10:23:34.887Z,20.8
2022-08-05T10:24:28.527Z,20.5
2022-08-05T10:25:29.751Z,21
2022-08-05T10:26:31.841Z,21.1
2022-08-05T10:28:09.175Z,21.3
2022-08-05T10:28:32.926Z,21.4
2022-08-05T10:30:07.290Z,21
2022-08-05T10:30:41.796Z,20.2
2022-08-05T10:32:49.902Z,20.4
2022-08-05T10:32:50.473Z,20.4
2022-08-05T10:33:39.757Z,21.2
2022-08-05T10:34:41.075Z,20.7
2022-08-05T10:35:44.037Z,21
2022-08-05T10:36:42.761Z,21.4
2022-08-05T10:37:44.860Z,21.9
2022-08-05T10:38:45.374Z,21.5
2022-08-05T10:39:58.700Z,21.4
2022-08-05T10:40:47.766Z,21.5
2022-08-05T10:41:48.746Z,21.7
2022-08-05T10:42:49.714Z,21.8
2022-08-05T10:43:50.735Z,21.6
2022-08-05T10:44:51.716Z,21
2022-08-05T10:45:52.776Z,20.4
2022-08-05T10:46:54.143Z,20.3
2022-08-05T10:47:56.262Z,20.1
2022-08-05T10:48:57.193Z,20
2022-08-05T10:50:20.997Z,20
2022-08-05T10:50:57.834Z,20
2022-08-05T10:51:59.629Z,20.5
2022-08-05T10:52:59.901Z,21.5
2022-08-05T10:54:02.151Z,20.3
2022-08-05T10:55:01.748Z,19.6
2022-08-05T10:56:03.938Z,19.2
2022-08-05T10:57:03.676Z,19.4
2022-08-05T10:58:04.922Z,18.8
2022-08-05T10:59:12.387Z,19.1
2022-08-05T11:00:11.148Z,19.3
2022-08-05T11:01:08.752Z,19.5
2022-08-05T11:02:14.297Z,21.2
2022-08-05T11:03:24.130Z,20.9
2022-08-05T11:04:11.863Z,21.3
2022-08-05T11:05:13.587Z,20.9
2022-08-05T11:06:17.741Z,21
2022-08-05T11:07:16.254Z,20.7
2022-08-05T11:08:27.614Z,21.3
2022-08-05T11:09:18.563Z,22.9
2022-08-05T11:10:19.818Z,23.3
2022-08-05T11:11:20.797Z,22
2022-08-05T11:12:22.176Z,21.1
2022-08-05T11:13:23.794Z,21.4
2022-08-05T11:14:37.246Z,22.2
2022-08-05T11:15:59.747Z,22.7
2022-08-05T11:16:34.116Z,22.3
2022-08-05T11:17:58.571Z,21.8
2022-08-05T11:18:29.873Z,21.7
2022-08-05T11:20:11.743Z,21.3
2022-08-05T11:20:30.794Z,20.9
2022-08-05T11:21:31.954Z,22.5
2022-08-05T11:22:33.747Z,21.8
2022-08-05T11:24:02.437Z,21
2022-08-05T11:24:38.775Z,21
2022-08-05T11:26:03.776Z,20.9
2022-08-05T11:26:40.398Z,20.8
2022-08-05T11:27:51.581Z,20.1
2022-08-05T11:28:41.755Z,19.1
2022-08-05T11:29:42.762Z,19.5
2022-08-05T11:30:43.814Z,19.6
2022-08-05T11:31:54.552Z,19.9
2022-08-05T11:32:47.857Z,20.2
2022-08-05T11:33:48.325Z,21.6
2022-08-05T11:34:51.180Z,20.6
2022-08-05T11:36:02.942Z,19.8
2022-08-05T11:36:52.709Z,20.3
2022-08-05T11:38:27.347Z,20.7
2022-08-05T11:38:55.333Z,20.8
2022-08-05T11:40:00.429Z,20.3
2022-08-05T11:41:00.783Z,19.9
2022-08-05T11:42:01.140Z,19.4
2022-08-05T11:42:59.094Z,19.1
2022-08-05T11:44:06.921Z,19
2022-08-05T11:45:01.824Z,19.8
2022-08-05T11:46:15.735Z,19.9
2022-08-05T11:47:10.384Z,20.6
2022-08-05T11:48:05.023Z,18.5
2022-08-05T11:49:07.973Z,18.4
2022-08-05T11:50:09.045Z,18.3
2022-08-05T11:51:10.941Z,18.6
2022-08-05T11:52:12.193Z,18.5
2022-08-05T11:53:12.923Z,18.7
2022-08-05T11:54:14.059Z,19.4
2022-08-05T11:55:14.780Z,19.5
2022-08-05T11:57:24.647Z,18.4
2022-08-05T11:58:18.091Z,18.3
2022-08-05T11:59:21.265Z,18.4
2022-08-05T12:00:20.121Z,18.6
2022-08-05T12:01:21.843Z,18.5
2022-08-05T12:02:24.317Z,18.7
2022-08-05T12:03:29.714Z,18.5
2022-08-05T12:04:24.774Z,18.9
2022-08-05T12:05:32.427Z,19.2
2022-08-05T12:06:26.833Z,18.8
2022-08-05T12:08:03.930Z,18.7
2022-08-05T12:08:28.882Z,18.5
2022-08-05T12:09:37.874Z,18.2
2022-08-05T12:10:38.776Z,17.9
2022-08-05T12:11:40.067Z,17.3
2022-08-05T12:12:32.763Z,17.2
2022-08-05T12:13:48.188Z,16.8
2022-08-05T12:14:34.794Z,16.5
2022-08-05T12:15:38.169Z,16.4
2022-08-05T12:16:38.322Z,16.4
2022-08-05T12:18:00.858Z,16.4
2022-08-05T12:18:39.131Z,16.2
2022-08-05T12:20:16.521Z,16.1
2022-08-05T12:20:40.837Z,16.8
2022-08-05T12:21:41.981Z,17.8
2022-08-05T12:22:46.226Z,16.9
2022-08-05T12:23:45.934Z,17.2
2022-08-05T12:24:49.487Z,17.2
2022-08-05T12:25:47.813Z,16.8
2022-08-05T12:26:48.795Z,16.9
2022-08-05T12:27:53.368Z,17.3
2022-08-05T12:28:51.873Z,17.8
2022-08-05T12:29:53.989Z,18.5
2022-08-05T12:30:53.854Z,19.1
2022-08-05T12:31:55.255Z,18.4
2022-08-05T12:32:56.307Z,18.4
2022-08-05T12:33:56.865Z,18.1
2022-08-05T12:34:57.874Z,17.8
2022-08-05T12:35:58.824Z,17.4
2022-08-05T12:36:59.814Z,17.1
2022-08-05T12:38:00.874Z,17.6
2022-08-05T12:39:01.858Z,17.4
2022-08-05T12:40:03.457Z,17.9
2022-08-05T12:41:03.874Z,18
2022-08-05T12:42:04.974Z,16.7
2022-08-05T12:43:06.854Z,17.1
2022-08-05T12:44:11.534Z,16.6
2022-08-05T12:45:09.418Z,17.5
2022-08-05T12:46:12.433Z,17.2
2022-08-05T12:47:12.272Z,17.5
2022-08-05T12:48:17.798Z,18
2022-08-05T12:49:14.161Z,17.1
2022-08-05T12:50:14.896Z,17
2022-08-05T12:51:18.880Z,17.4
2022-08-05T12:52:18.988Z,17.5
2022-08-05T12:53:17.957Z,17.7
2022-08-05T12:54:23.285Z,18
2022-08-05T12:55:22.778Z,18.4
2022-08-05T12:56:24.567Z,17.9
2022-08-05T12:57:23.210Z,17.2
2022-08-05T12:58:39.652Z,17.3
2022-08-05T12:59:27.294Z,17.3
2022-08-05T13:01:58.789Z,17.5
2022-08-05T13:01:59.641Z,17.8
2022-08-05T13:02:27.429Z,17.7
2022-08-05T13:03:32.170Z,17.1
2022-08-05T13:04:28.874Z,16.8
2022-08-05T13:05:33.931Z,17.3
2022-08-05T13:06:30.835Z,17.1
2022-08-05T13:07:56.389Z,16.5
2022-08-05T13:08:33.010Z,16.3
2022-08-05T13:09:33.847Z,16
2022-08-05T13:10:34.894Z,15.9
2022-08-05T13:12:01.357Z,15.9
2022-08-05T13:12:36.954Z,15.8
2022-08-05T13:14:04.319Z,15.9
2022-08-05T13:14:38.734Z,15.8
2022-08-05T13:15:41.866Z,16
2022-08-05T13:16:40.874Z,16.3
2022-08-05T13:17:42.550Z,16.3
2022-08-05T13:18:42.911Z,16.4
2022-08-05T13:19:51.827Z,16
2022-08-05T13:20:44.895Z,15.6
2022-08-05T13:21:47.853Z,15.4
2022-08-05T13:22:46.902Z,16
2022-08-05T13:23:50.517Z,15.4
2022-08-05T13:24:51.283Z,15.4
2022-08-05T13:25:51.463Z,15.5
2022-08-05T13:26:51.854Z,15.4
2022-08-05T13:27:52.894Z,15.4
2022-08-05T13:28:53.811Z,15.1
2022-08-05T13:29:59.705Z,14.8
2022-08-05T13:30:57.070Z,15.6
2022-08-05T13:32:03.620Z,16
2022-08-05T13:33:01.027Z,15.8
2022-08-05T13:34:20.618Z,15.8
2022-08-05T13:35:01.987Z,15.8
2022-08-05T13:36:05.179Z,16.4
2022-08-05T13:37:04.004Z,15.7
2022-08-05T13:38:05.925Z,15.7
2022-08-05T13:39:08.583Z,15.6
2022-08-05T13:40:14.739Z,15.4
2022-08-05T13:41:08.992Z,15.2